sensor_id;sensor_type;location;lat;lon;timestamp;pressure;altitude;pressure_sealevel;temperature;humidity
49377;BME280;35253;34.688;33.040;2023-01-25T00:01:12;101551.13;;;13.99;100.00
49377;BME280;35253;34.688;33.040;2023-01-25T00:03:37;101547.13;;;14.07;100.00
49377;BME280;35253;34.688;33.040;2023-01-25T00:06:03;101558.19;;;13.86;100.00
49377;BME280;35253;34.688;33.040;2023-01-25T00:08:28;101553.38;;;13.91;100.00
49377;BME280;35253;34.688;33.040;2023-01-25T00:10:54;101555.31;;;13.89;100.00
49377;BME280;35253;34.688;33.040;2023-01-25T00:13:19;101550.97;;;13.87;100.00
49377;BME280;35253;34.688;33.040;2023-01-25T00:15:45;101543.78;;;13.87;100.00
49377;BME280;35253;34.688;33.040;2023-01-25T00:18:10;101543.19;;;13.82;100.00
49377;BME280;35253;34.688;33.040;2023-01-25T00:20:36;101544.53;;;13.75;100.00
49377;BME280;35253;34.688;33.040;2023-01-25T00:23:01;101542.03;;;13.72;100.00
49377;BME280;35253;34.688;33.040;2023-01-25T00:25:27;101544.25;;;13.80;100.00
49377;BME280;35253;34.688;33.040;2023-01-25T00:27:52;101542.97;;;13.71;100.00
49377;BME280;35253;34.688;33.040;2023-01-25T00:30:18;101542.91;;;13.73;100.00
49377;BME280;35253;34.688;33.040;2023-01-25T00:32:48;101539.44;;;13.71;100.00
49377;BME280;35253;34.688;33.040;2023-01-25T00:35:17;101536.81;;;13.69;100.00
49377;BME280;35253;34.688;33.040;2023-01-25T00:37:43;101533.56;;;13.64;100.00
49377;BME280;35253;34.688;33.040;2023-01-25T00:40:11;101535.47;;;13.62;100.00
49377;BME280;35253;34.688;33.040;2023-01-25T00:42:37;101540.47;;;13.68;100.00
49377;BME280;35253;34.688;33.040;2023-01-25T00:45:02;101537.53;;;13.57;100.00
49377;BME280;35253;34.688;33.040;2023-01-25T00:47:28;101530.31;;;13.59;100.00
49377;BME280;35253;34.688;33.040;2023-01-25T00:49:53;101520.78;;;13.53;100.00
49377;BME280;35253;34.688;33.040;2023-01-25T00:52:19;101511.63;;;13.58;100.00
49377;BME280;35253;34.688;33.040;2023-01-25T00:54:46;101512.28;;;13.61;100.00
49377;BME280;35253;34.688;33.040;2023-01-25T00:57:11;101516.13;;;13.57;100.00
49377;BME280;35253;34.688;33.040;2023-01-25T00:59:37;101515.16;;;13.58;100.00
49377;BME280;35253;34.688;33.040;2023-01-25T01:02:02;101499.69;;;13.63;100.00
49377;BME280;35253;34.688;33.040;2023-01-25T01:04:28;101505.72;;;13.67;100.00
49377;BME280;35253;34.688;33.040;2023-01-25T01:06:54;101499.88;;;13.60;100.00
49377;BME280;35253;34.688;33.040;2023-01-25T01:09:20;101496.16;;;13.63;100.00
49377;BME280;35253;34.688;33.040;2023-01-25T01:11:46;101490.50;;;13.67;100.00
49377;BME280;35253;34.688;33.040;2023-01-25T01:14:12;101490.88;;;13.61;100.00
49377;BME280;35253;34.688;33.040;2023-01-25T01:16:37;101484.38;;;13.65;100.00
49377;BME280;35253;34.688;33.040;2023-01-25T01:19:03;101481.00;;;13.62;100.00
49377;BME280;35253;34.688;33.040;2023-01-25T01:21:28;101478.78;;;13.54;100.00
49377;BME280;35253;34.688;33.040;2023-01-25T01:23:54;101480.53;;;13.55;100.00
49377;BME280;35253;34.688;33.040;2023-01-25T01:26:19;101483.56;;;13.49;100.00
49377;BME280;35253;34.688;33.040;2023-01-25T01:28:45;101483.28;;;13.53;100.00
49377;BME280;35253;34.688;33.040;2023-01-25T01:31:15;101491.06;;;13.58;100.00
49377;BME280;35253;34.688;33.040;2023-01-25T01:33:41;101484.56;;;13.62;100.00
49377;BME280;35253;34.688;33.040;2023-01-25T01:38:32;101475.56;;;13.63;100.00
49377;BME280;35253;34.688;33.040;2023-01-25T01:40:58;101474.78;;;13.61;100.00
49377;BME280;35253;34.688;33.040;2023-01-25T01:43:23;101478.78;;;13.54;100.00
49377;BME280;35253;34.688;33.040;2023-01-25T01:45:53;101481.56;;;13.52;100.00
49377;BME280;35253;34.688;33.040;2023-01-25T01:50:45;101473.97;;;13.45;100.00
49377;BME280;35253;34.688;33.040;2023-01-25T01:53:11;101470.88;;;13.37;100.00
49377;BME280;35253;34.688;33.040;2023-01-25T01:55:36;101478.53;;;13.43;100.00
49377;BME280;35253;34.688;33.040;2023-01-25T01:58:02;101472.50;;;13.39;100.00
49377;BME280;35253;34.688;33.040;2023-01-25T02:00:30;101476.41;;;13.34;100.00
49377;BME280;35253;34.688;33.040;2023-01-25T02:02:56;101471.38;;;13.43;100.00
49377;BME280;35253;34.688;33.040;2023-01-25T02:07:54;101465.78;;;13.17;100.00
49377;BME280;35253;34.688;33.040;2023-01-25T02:10:20;101477.63;;;13.28;100.00
49377;BME280;35253;34.688;33.040;2023-01-25T02:12:46;101471.75;;;13.22;100.00
49377;BME280;35253;34.688;33.040;2023-01-25T02:15:14;101480.16;;;13.16;100.00
49377;BME280;35253;34.688;33.040;2023-01-25T02:17:40;101473.13;;;13.13;100.00
49377;BME280;35253;34.688;33.040;2023-01-25T02:20:13;101477.63;;;13.13;100.00
49377;BME280;35253;34.688;33.040;2023-01-25T02:25:19;101474.69;;;13.17;100.00
49377;BME280;35253;34.688;33.040;2023-01-25T02:27:50;101483.50;;;13.19;100.00
49377;BME280;35253;34.688;33.040;2023-01-25T02:30:17;101481.16;;;13.13;100.00
49377;BME280;35253;34.688;33.040;2023-01-25T02:32:42;101484.19;;;13.23;100.00
49377;BME280;35253;34.688;33.040;2023-01-25T02:35:16;101486.53;;;13.29;100.00
49377;BME280;35253;34.688;33.040;2023-01-25T02:37:43;101488.59;;;13.24;100.00
49377;BME280;35253;34.688;33.040;2023-01-25T02:40:09;101483.13;;;13.09;100.00
49377;BME280;35253;34.688;33.040;2023-01-25T02:42:34;101483.09;;;13.11;100.00
49377;BME280;35253;34.688;33.040;2023-01-25T02:45:00;101484.00;;;13.26;100.00
49377;BME280;35253;34.688;33.040;2023-01-25T02:47:26;101486.75;;;13.08;100.00
49377;BME280;35253;34.688;33.040;2023-01-25T02:49:51;101486.25;;;13.18;100.00
49377;BME280;35253;34.688;33.040;2023-01-25T02:52:17;101477.47;;;13.16;100.00
49377;BME280;35253;34.688;33.040;2023-01-25T02:54:42;101483.78;;;13.15;100.00
49377;BME280;35253;34.688;33.040;2023-01-25T02:57:08;101482.22;;;13.11;100.00
49377;BME280;35253;34.688;33.040;2023-01-25T02:59:34;101493.84;;;13.09;100.00
49377;BME280;35253;34.688;33.040;2023-01-25T03:02:00;101487.56;;;13.11;100.00
49377;BME280;35253;34.688;33.040;2023-01-25T03:04:26;101492.00;;;13.12;100.00
49377;BME280;35253;34.688;33.040;2023-01-25T03:06:52;101487.81;;;13.06;100.00
49377;BME280;35253;34.688;33.040;2023-01-25T03:09:17;101491.50;;;13.03;100.00
49377;BME280;35253;34.688;33.040;2023-01-25T03:11:42;101491.34;;;13.06;100.00
49377;BME280;35253;34.688;33.040;2023-01-25T03:14:08;101495.91;;;13.04;100.00
49377;BME280;35253;34.688;33.040;2023-01-25T03:16:34;101493.34;;;13.03;100.00
49377;BME280;35253;34.688;33.040;2023-01-25T03:18:59;101508.53;;;13.02;100.00
49377;BME280;35253;34.688;33.040;2023-01-25T03:21:25;101492.47;;;13.02;100.00
49377;BME280;35253;34.688;33.040;2023-01-25T03:23:57;101501.19;;;13.22;100.00
49377;BME280;35253;34.688;33.040;2023-01-25T03:26:24;101491.25;;;13.08;100.00
49377;BME280;35253;34.688;33.040;2023-01-25T03:28:49;101493.97;;;13.24;100.00
49377;BME280;35253;34.688;33.040;2023-01-25T03:31:15;101490.06;;;13.14;100.00
49377;BME280;35253;34.688;33.040;2023-01-25T03:33:41;101491.63;;;13.18;100.00
49377;BME280;35253;34.688;33.040;2023-01-25T03:36:07;101495.16;;;13.18;100.00
49377;BME280;35253;34.688;33.040;2023-01-25T03:38:33;101494.19;;;13.03;100.00
49377;BME280;35253;34.688;33.040;2023-01-25T03:40:59;101500.25;;;13.07;100.00
49377;BME280;35253;34.688;33.040;2023-01-25T03:43:25;101503.78;;;13.07;100.00
49377;BME280;35253;34.688;33.040;2023-01-25T03:45:51;101499.75;;;13.16;100.00
49377;BME280;35253;34.688;33.040;2023-01-25T03:48:16;101496.28;;;13.14;100.00
49377;BME280;35253;34.688;33.040;2023-01-25T03:50:42;101503.00;;;13.05;100.00
49377;BME280;35253;34.688;33.040;2023-01-25T03:53:07;101515.84;;;12.99;100.00
49377;BME280;35253;34.688;33.040;2023-01-25T03:55:44;101502.31;;;13.02;100.00
49377;BME280;35253;34.688;33.040;2023-01-25T03:58:09;101496.09;;;13.01;100.00
49377;BME280;35253;34.688;33.040;2023-01-25T04:00:34;101503.50;;;12.96;100.00
49377;BME280;35253;34.688;33.040;2023-01-25T04:03:00;101499.91;;;12.97;100.00
49377;BME280;35253;34.688;33.040;2023-01-25T04:05:26;101503.00;;;13.05;100.00
49377;BME280;35253;34.688;33.040;2023-01-25T04:07:51;101501.78;;;12.95;100.00
49377;BME280;35253;34.688;33.040;2023-01-25T04:10:16;101505.50;;;12.93;100.00
49377;BME280;35253;34.688;33.040;2023-01-25T04:12:42;101511.28;;;12.85;100.00
49377;BME280;35253;34.688;33.040;2023-01-25T04:15:07;101511.78;;;12.76;100.00
49377;BME280;35253;34.688;33.040;2023-01-25T04:17:33;101510.56;;;12.82;100.00
49377;BME280;35253;34.688;33.040;2023-01-25T04:19:58;101516.03;;;12.80;100.00
49377;BME280;35253;34.688;33.040;2023-01-25T04:22:24;101508.50;;;12.71;100.00
49377;BME280;35253;34.688;33.040;2023-01-25T04:24:49;101519.72;;;12.78;100.00
49377;BME280;35253;34.688;33.040;2023-01-25T04:27:15;101517.84;;;12.80;100.00
49377;BME280;35253;34.688;33.040;2023-01-25T04:29:40;101528.28;;;12.84;100.00
49377;BME280;35253;34.688;33.040;2023-01-25T04:32:06;101529.91;;;12.87;100.00
49377;BME280;35253;34.688;33.040;2023-01-25T04:34:31;101525.69;;;12.83;100.00
49377;BME280;35253;34.688;33.040;2023-01-25T04:36:56;101530.84;;;12.70;100.00
49377;BME280;35253;34.688;33.040;2023-01-25T04:39:22;101523.00;;;12.67;100.00
49377;BME280;35253;34.688;33.040;2023-01-25T04:41:47;101525.19;;;12.76;100.00
49377;BME280;35253;34.688;33.040;2023-01-25T04:44:13;101536.81;;;12.75;100.00
49377;BME280;35253;34.688;33.040;2023-01-25T04:46:38;101526.97;;;12.76;100.00
49377;BME280;35253;34.688;33.040;2023-01-25T04:49:03;101530.66;;;12.73;100.00
49377;BME280;35253;34.688;33.040;2023-01-25T04:51:29;101533.34;;;12.73;100.00
49377;BME280;35253;34.688;33.040;2023-01-25T04:53:54;101536.13;;;12.72;100.00
49377;BME280;35253;34.688;33.040;2023-01-25T04:56:20;101534.41;;;12.86;100.00
49377;BME280;35253;34.688;33.040;2023-01-25T04:58:45;101525.75;;;12.81;100.00
49377;BME280;35253;34.688;33.040;2023-01-25T05:01:10;101527.50;;;12.82;100.00
49377;BME280;35253;34.688;33.040;2023-01-25T05:03:36;101534.56;;;12.83;100.00
49377;BME280;35253;34.688;33.040;2023-01-25T05:06:02;101534.06;;;12.92;100.00
49377;BME280;35253;34.688;33.040;2023-01-25T05:08:27;101527.84;;;12.92;100.00
49377;BME280;35253;34.688;33.040;2023-01-25T05:10:52;101534.94;;;12.93;100.00
49377;BME280;35253;34.688;33.040;2023-01-25T05:13:18;101525.06;;;12.78;100.00
49377;BME280;35253;34.688;33.040;2023-01-25T05:15:43;101524.16;;;12.94;100.00
49377;BME280;35253;34.688;33.040;2023-01-25T05:18:09;101528.72;;;12.92;100.00
49377;BME280;35253;34.688;33.040;2023-01-25T05:20:34;101529.41;;;12.96;100.00
49377;BME280;35253;34.688;33.040;2023-01-25T05:23:00;101533.38;;;13.04;100.00
49377;BME280;35253;34.688;33.040;2023-01-25T05:25:25;101536.00;;;13.06;100.00
49377;BME280;35253;34.688;33.040;2023-01-25T05:28:09;101529.47;;;13.12;100.00
49377;BME280;35253;34.688;33.040;2023-01-25T05:30:35;101536.25;;;13.01;100.00
49377;BME280;35253;34.688;33.040;2023-01-25T05:33:00;101539.34;;;13.09;100.00
49377;BME280;35253;34.688;33.040;2023-01-25T05:35:26;101537.41;;;13.29;100.00
49377;BME280;35253;34.688;33.040;2023-01-25T05:37:55;101537.91;;;13.35;100.00
49377;BME280;35253;34.688;33.040;2023-01-25T05:40:20;101539.41;;;13.41;100.00
49377;BME280;35253;34.688;33.040;2023-01-25T05:42:51;101538.78;;;13.36;100.00
49377;BME280;35253;34.688;33.040;2023-01-25T05:45:17;101537.22;;;13.47;100.00
49377;BME280;35253;34.688;33.040;2023-01-25T05:47:42;101541.88;;;13.44;100.00
49377;BME280;35253;34.688;33.040;2023-01-25T05:50:08;101547.25;;;13.44;100.00
49377;BME280;35253;34.688;33.040;2023-01-25T05:52:33;101548.44;;;13.54;100.00
49377;BME280;35253;34.688;33.040;2023-01-25T05:54:59;101549.41;;;13.53;100.00
49377;BME280;35253;34.688;33.040;2023-01-25T05:57:24;101549.81;;;13.61;100.00
49377;BME280;35253;34.688;33.040;2023-01-25T05:59:49;101542.56;;;13.63;100.00
49377;BME280;35253;34.688;33.040;2023-01-25T06:02:15;101548.94;;;13.76;100.00
49377;BME280;35253;34.688;33.040;2023-01-25T06:04:40;101552.22;;;13.81;100.00
49377;BME280;35253;34.688;33.040;2023-01-25T06:07:06;101554.09;;;13.95;100.00
49377;BME280;35253;34.688;33.040;2023-01-25T06:09:31;101559.75;;;14.05;100.00
49377;BME280;35253;34.688;33.040;2023-01-25T06:11:56;101562.16;;;14.09;100.00
49377;BME280;35253;34.688;33.040;2023-01-25T06:14:22;101559.97;;;14.16;100.00
49377;BME280;35253;34.688;33.040;2023-01-25T06:16:47;101557.63;;;14.25;100.00
49377;BME280;35253;34.688;33.040;2023-01-25T06:19:13;101560.09;;;14.28;100.00
49377;BME280;35253;34.688;33.040;2023-01-25T06:21:38;101555.09;;;14.38;100.00
49377;BME280;35253;34.688;33.040;2023-01-25T06:24:04;101561.78;;;14.45;100.00
49377;BME280;35253;34.688;33.040;2023-01-25T06:26:29;101558.19;;;14.60;100.00
49377;BME280;35253;34.688;33.040;2023-01-25T06:28:55;101568.50;;;14.66;100.00
49377;BME280;35253;34.688;33.040;2023-01-25T06:31:20;101569.22;;;14.70;100.00
49377;BME280;35253;34.688;33.040;2023-01-25T06:33:47;101570.25;;;14.81;100.00
49377;BME280;35253;34.688;33.040;2023-01-25T06:36:13;101577.75;;;14.91;100.00
49377;BME280;35253;34.688;33.040;2023-01-25T06:38:39;101580.03;;;14.97;100.00
49377;BME280;35253;34.688;33.040;2023-01-25T06:41:05;101579.44;;;15.06;100.00
49377;BME280;35253;34.688;33.040;2023-01-25T06:43:32;101578.09;;;15.13;100.00
49377;BME280;35253;34.688;33.040;2023-01-25T06:46:01;101578.47;;;15.21;100.00
49377;BME280;35253;34.688;33.040;2023-01-25T06:48:28;101579.06;;;15.26;100.00
49377;BME280;35253;34.688;33.040;2023-01-25T06:51:00;101589.38;;;15.32;100.00
49377;BME280;35253;34.688;33.040;2023-01-25T06:53:27;101581.31;;;15.46;100.00
49377;BME280;35253;34.688;33.040;2023-01-25T06:56:02;101584.59;;;15.51;100.00
49377;BME280;35253;34.688;33.040;2023-01-25T06:58:29;101589.38;;;15.60;100.00
49377;BME280;35253;34.688;33.040;2023-01-25T07:00:58;101594.44;;;15.65;100.00
49377;BME280;35253;34.688;33.040;2023-01-25T07:03:24;101595.66;;;15.73;100.00
49377;BME280;35253;34.688;33.040;2023-01-25T07:05:49;101594.84;;;15.86;100.00
49377;BME280;35253;34.688;33.040;2023-01-25T07:08:15;101601.00;;;15.88;100.00
49377;BME280;35253;34.688;33.040;2023-01-25T07:10:41;101605.00;;;15.95;100.00
49377;BME280;35253;34.688;33.040;2023-01-25T07:13:06;101594.38;;;16.06;100.00
49377;BME280;35253;34.688;33.040;2023-01-25T07:15:32;101596.66;;;16.12;100.00
49377;BME280;35253;34.688;33.040;2023-01-25T07:17:57;101602.81;;;16.14;100.00
49377;BME280;35253;34.688;33.040;2023-01-25T07:20:23;101594.53;;;16.30;100.00
49377;BME280;35253;34.688;33.040;2023-01-25T07:22:48;101604.44;;;16.29;100.00
49377;BME280;35253;34.688;33.040;2023-01-25T07:25:14;101596.50;;;16.40;100.00
49377;BME280;35253;34.688;33.040;2023-01-25T07:27:39;101601.25;;;16.49;100.00
49377;BME280;35253;34.688;33.040;2023-01-25T07:30:05;101600.25;;;16.50;100.00
49377;BME280;35253;34.688;33.040;2023-01-25T07:32:30;101602.97;;;16.50;100.00
49377;BME280;35253;34.688;33.040;2023-01-25T07:34:56;101609.84;;;16.54;100.00
49377;BME280;35253;34.688;33.040;2023-01-25T07:37:21;101601.16;;;16.63;100.00
49377;BME280;35253;34.688;33.040;2023-01-25T07:39:47;101607.28;;;16.53;100.00
49377;BME280;35253;34.688;33.040;2023-01-25T07:42:14;101604.31;;;16.57;100.00
49377;BME280;35253;34.688;33.040;2023-01-25T07:44:40;101608.38;;;16.63;100.00
49377;BME280;35253;34.688;33.040;2023-01-25T07:47:05;101608.06;;;16.67;100.00
49377;BME280;35253;34.688;33.040;2023-01-25T07:49:31;101608.19;;;16.66;100.00
49377;BME280;35253;34.688;33.040;2023-01-25T07:51:56;101606.22;;;16.81;100.00
49377;BME280;35253;34.688;33.040;2023-01-25T07:54:22;101601.84;;;16.80;100.00
49377;BME280;35253;34.688;33.040;2023-01-25T07:56:47;101606.78;;;16.86;100.00
49377;BME280;35253;34.688;33.040;2023-01-25T07:59:14;101615.53;;;16.89;100.00
49377;BME280;35253;34.688;33.040;2023-01-25T08:01:39;101605.06;;;16.97;100.00
49377;BME280;35253;34.688;33.040;2023-01-25T08:04:05;101606.03;;;16.96;100.00
49377;BME280;35253;34.688;33.040;2023-01-25T08:06:32;101608.63;;;16.98;100.00
49377;BME280;35253;34.688;33.040;2023-01-25T08:09:12;101602.88;;;16.90;100.00
49377;BME280;35253;34.688;33.040;2023-01-25T08:11:38;101598.38;;;16.90;100.00
49377;BME280;35253;34.688;33.040;2023-01-25T08:14:04;101604.75;;;17.02;100.00
49377;BME280;35253;34.688;33.040;2023-01-25T08:16:30;101602.16;;;17.00;100.00
49377;BME280;35253;34.688;33.040;2023-01-25T08:18:56;101604.75;;;17.02;100.00
49377;BME280;35253;34.688;33.040;2023-01-25T08:21:23;101606.00;;;17.09;100.00
49377;BME280;35253;34.688;33.040;2023-01-25T08:23:49;101605.25;;;17.07;100.00
49377;BME280;35253;34.688;33.040;2023-01-25T08:26:15;101596.31;;;17.06;100.00
49377;BME280;35253;34.688;33.040;2023-01-25T08:28:41;101585.56;;;17.06;100.00
49377;BME280;35253;34.688;33.040;2023-01-25T08:31:11;101593.06;;;17.14;100.00
49377;BME280;35253;34.688;33.040;2023-01-25T08:33:37;101597.50;;;17.15;100.00
49377;BME280;35253;34.688;33.040;2023-01-25T08:36:03;101598.00;;;17.20;100.00
49377;BME280;35253;34.688;33.040;2023-01-25T08:38:29;101594.81;;;17.15;100.00
49377;BME280;35253;34.688;33.040;2023-01-25T08:40:54;101597.81;;;17.23;100.00
49377;BME280;35253;34.688;33.040;2023-01-25T08:43:20;101597.81;;;17.23;100.00
49377;BME280;35253;34.688;33.040;2023-01-25T08:45:46;101591.13;;;17.29;100.00
49377;BME280;35253;34.688;33.040;2023-01-25T08:48:12;101592.47;;;17.34;100.00
49377;BME280;35253;34.688;33.040;2023-01-25T08:50:44;101586.88;;;17.37;100.00
49377;BME280;35253;34.688;33.040;2023-01-25T08:53:10;101588.81;;;17.35;100.00
49377;BME280;35253;34.688;33.040;2023-01-25T08:55:35;101583.53;;;17.34;100.00
49377;BME280;35253;34.688;33.040;2023-01-25T08:58:01;101578.81;;;17.37;100.00
49377;BME280;35253;34.688;33.040;2023-01-25T09:00:26;101576.84;;;17.39;100.00
49377;BME280;35253;34.688;33.040;2023-01-25T09:02:52;101577.47;;;17.43;100.00
49377;BME280;35253;34.688;33.040;2023-01-25T09:05:17;101569.66;;;17.51;100.00
49377;BME280;35253;34.688;33.040;2023-01-25T09:07:42;101568.38;;;17.56;100.00
49377;BME280;35253;34.688;33.040;2023-01-25T09:10:08;101570.94;;;17.71;100.00
49377;BME280;35253;34.688;33.040;2023-01-25T09:12:34;101562.88;;;17.82;100.00
49377;BME280;35253;34.688;33.040;2023-01-25T09:15:00;101558.16;;;17.85;99.97
49377;BME280;35253;34.688;33.040;2023-01-25T09:17:25;101558.56;;;17.68;93.64
49377;BME280;35253;34.688;33.040;2023-01-25T09:19:50;101556.00;;;17.78;93.29
49377;BME280;35253;34.688;33.040;2023-01-25T09:22:16;101548.19;;;17.86;94.13
49377;BME280;35253;34.688;33.040;2023-01-25T09:24:41;101538.91;;;17.90;94.80
49377;BME280;35253;34.688;33.040;2023-01-25T09:27:07;101538.03;;;17.89;94.86
49377;BME280;35253;34.688;33.040;2023-01-25T09:29:32;101530.09;;;17.99;97.76
49377;BME280;35253;34.688;33.040;2023-01-25T09:32:16;101525.19;;;18.04;99.81
49377;BME280;35253;34.688;33.040;2023-01-25T09:34:42;101534.81;;;18.19;100.00
49377;BME280;35253;34.688;33.040;2023-01-25T09:37:07;101522.31;;;18.18;100.00
49377;BME280;35253;34.688;33.040;2023-01-25T09:39:33;101516.91;;;18.18;99.06
49377;BME280;35253;34.688;33.040;2023-01-25T09:42:15;101510.78;;;18.27;100.00
49377;BME280;35253;34.688;33.040;2023-01-25T09:44:51;101510.31;;;18.33;100.00
49377;BME280;35253;34.688;33.040;2023-01-25T09:47:24;101507.13;;;18.39;100.00
49377;BME280;35253;34.688;33.040;2023-01-25T09:50:13;101509.00;;;18.50;100.00
49377;BME280;35253;34.688;33.040;2023-01-25T09:55:11;101503.00;;;18.58;100.00
49377;BME280;35253;34.688;33.040;2023-01-25T09:57:38;101498.34;;;18.71;100.00
49377;BME280;35253;34.688;33.040;2023-01-25T10:00:07;101503.75;;;18.71;100.00
49377;BME280;35253;34.688;33.040;2023-01-25T10:02:39;101494.94;;;18.69;99.43
49377;BME280;35253;34.688;33.040;2023-01-25T10:05:14;101494.41;;;18.75;100.00
49377;BME280;35253;34.688;33.040;2023-01-25T10:10:31;101489.88;;;18.64;96.06
49377;BME280;35253;34.688;33.040;2023-01-25T10:12:58;101493.06;;;18.80;94.95
49377;BME280;35253;34.688;33.040;2023-01-25T10:15:28;101491.22;;;18.92;97.90
49377;BME280;35253;34.688;33.040;2023-01-25T10:18:06;101488.13;;;18.97;100.00
49377;BME280;35253;34.688;33.040;2023-01-25T10:20:46;101477.94;;;19.00;100.00
49377;BME280;35253;34.688;33.040;2023-01-25T10:26:16;101471.63;;;19.22;100.00
49377;BME280;35253;34.688;33.040;2023-01-25T10:31:18;101458.16;;;19.43;100.00
49377;BME280;35253;34.688;33.040;2023-01-25T10:33:45;101462.47;;;19.45;100.00
49377;BME280;35253;34.688;33.040;2023-01-25T10:36:15;101461.25;;;19.49;100.00
49377;BME280;35253;34.688;33.040;2023-01-25T10:38:44;101459.44;;;19.27;100.00
49377;BME280;35253;34.688;33.040;2023-01-25T10:41:18;101454.53;;;19.44;100.00
49377;BME280;35253;34.688;33.040;2023-01-25T10:43:45;101451.00;;;19.53;100.00
49377;BME280;35253;34.688;33.040;2023-01-25T10:46:21;101443.16;;;19.50;100.00
49377;BME280;35253;34.688;33.040;2023-01-25T10:48:47;101444.78;;;19.41;100.00
49377;BME280;35253;34.688;33.040;2023-01-25T10:51:32;101434.25;;;19.70;100.00
49377;BME280;35253;34.688;33.040;2023-01-25T10:54:02;101445.72;;;19.83;100.00
49377;BME280;35253;34.688;33.040;2023-01-25T10:56:28;101440.44;;;19.82;100.00
49377;BME280;35253;34.688;33.040;2023-01-25T10:59:16;101441.63;;;20.09;100.00
49377;BME280;35253;34.688;33.040;2023-01-25T11:01:42;101429.69;;;19.91;100.00
49377;BME280;35253;34.688;33.040;2023-01-25T11:04:26;101431.91;;;20.07;100.00
49377;BME280;35253;34.688;33.040;2023-01-25T11:06:53;101421.00;;;20.39;100.00
49377;BME280;35253;34.688;33.040;2023-01-25T11:11:45;101420.25;;;20.67;100.00
49377;BME280;35253;34.688;33.040;2023-01-25T11:14:17;101420.44;;;20.75;100.00
49377;BME280;35253;34.688;33.040;2023-01-25T11:16:44;101420.69;;;19.91;100.00
49377;BME280;35253;34.688;33.040;2023-01-25T11:21:54;101410.69;;;21.12;100.00
49377;BME280;35253;34.688;33.040;2023-01-25T11:24:24;101417.84;;;21.42;100.00
49377;BME280;35253;34.688;33.040;2023-01-25T11:26:50;101408.56;;;21.74;100.00
49377;BME280;35253;34.688;33.040;2023-01-25T11:29:19;101413.97;;;22.02;100.00
49377;BME280;35253;34.688;33.040;2023-01-25T11:31:48;101409.47;;;22.21;100.00
49377;BME280;35253;34.688;33.040;2023-01-25T11:34:15;101409.69;;;22.46;100.00
49377;BME280;35253;34.688;33.040;2023-01-25T11:36:44;101412.97;;;22.77;100.00
49377;BME280;35253;34.688;33.040;2023-01-25T11:41:48;101413.38;;;22.55;100.00
49377;BME280;35253;34.688;33.040;2023-01-25T11:52:29;101406.91;;;23.11;100.00
49377;BME280;35253;34.688;33.040;2023-01-25T12:00:31;101407.25;;;23.61;100.00
49377;BME280;35253;34.688;33.040;2023-01-25T12:10:53;101390.78;;;24.40;96.49
49377;BME280;35253;34.688;33.040;2023-01-25T12:13:23;101385.53;;;23.16;93.79
49377;BME280;35253;34.688;33.040;2023-01-25T12:20:59;101398.44;;;21.47;100.00
49377;BME280;35253;34.688;33.040;2023-01-25T12:34:26;101408.84;;;22.36;100.00
49377;BME280;35253;34.688;33.040;2023-01-25T12:36:55;101404.34;;;23.27;100.00
49377;BME280;35253;34.688;33.040;2023-01-25T12:39:26;101412.00;;;22.96;100.00
49377;BME280;35253;34.688;33.040;2023-01-25T12:47:00;101406.56;;;22.41;100.00
49377;BME280;35253;34.688;33.040;2023-01-25T12:49:32;101402.13;;;21.65;100.00
49377;BME280;35253;34.688;33.040;2023-01-25T12:51:59;101401.28;;;21.17;100.00
49377;BME280;35253;34.688;33.040;2023-01-25T12:54:30;101404.41;;;21.50;100.00
49377;BME280;35253;34.688;33.040;2023-01-25T12:57:04;101401.56;;;21.13;100.00
49377;BME280;35253;34.688;33.040;2023-01-25T12:59:44;101399.50;;;20.96;100.00
49377;BME280;35253;34.688;33.040;2023-01-25T13:07:42;101392.72;;;20.62;100.00
49377;BME280;35253;34.688;33.040;2023-01-25T13:10:25;101400.69;;;20.03;100.00
49377;BME280;35253;34.688;33.040;2023-01-25T13:12:58;101399.91;;;19.91;100.00
49377;BME280;35253;34.688;33.040;2023-01-25T13:15:34;101405.09;;;19.62;100.00
49377;BME280;35253;34.688;33.040;2023-01-25T13:18:01;101398.50;;;19.23;100.00
49377;BME280;35253;34.688;33.040;2023-01-25T13:20:47;101398.84;;;19.30;100.00
49377;BME280;35253;34.688;33.040;2023-01-25T13:28:53;101400.91;;;19.38;100.00
49377;BME280;35253;34.688;33.040;2023-01-25T13:34:07;101392.69;;;20.22;100.00
49377;BME280;35253;34.688;33.040;2023-01-25T13:44:36;101390.47;;;20.37;100.00
49377;BME280;35253;34.688;33.040;2023-01-25T13:47:08;101389.56;;;20.57;100.00
49377;BME280;35253;34.688;33.040;2023-01-25T13:52:20;101394.59;;;20.81;100.00
49377;BME280;35253;34.688;33.040;2023-01-25T13:54:47;101385.16;;;22.29;100.00
49377;BME280;35253;34.688;33.040;2023-01-25T13:57:14;101381.31;;;23.39;100.00
49377;BME280;35253;34.688;33.040;2023-01-25T13:59:43;101371.59;;;24.57;100.00
49377;BME280;35253;34.688;33.040;2023-01-25T14:02:22;101360.97;;;24.38;98.26
49377;BME280;35253;34.688;33.040;2023-01-25T14:04:48;101368.09;;;24.73;97.69
49377;BME280;35253;34.688;33.040;2023-01-25T14:07:16;101375.19;;;25.00;97.48